sensor_id;sensor_type;location;lat;lon;timestamp;P1;durP1;ratioP1;P2;durP2;ratioP2
23252;SDS011;11795;47.054;15.408;2024-02-14T00:00:00;6.8;;;4.5;;
23252;SDS011;11795;47.054;15.408;2024-02-14T00:02:00;5.4;;;4.2;;
23252;SDS011;11795;47.054;15.408;2024-02-14T00:04:00;5.4;;;4.2;;
23252;SDS011;11795;47.054;15.408;2024-02-14T00:06:00;5.4;;;4.2;;
23252;SDS011;11795;47.054;15.408;2024-02-14T00:08:00;7.0;;;4.0;;
23252;SDS011;11795;47.054;15.408;2024-02-14T00:10:00;7.0;;;4.0;;
23252;SDS011;11795;47.054;15.408;2024-02-14T00:12:00;6.3;;;3.8;;
23252;SDS011;11795;47.054;15.408;2024-02-14T00:14:00;6.3;;;3.8;;
23252;SDS011;11795;47.054;15.408;2024-02-14T00:16:00;6.3;;;3.8;;
23252;SDS011;11795;47.054;15.408;2024-02-14T00:18:01;6.4;;;3.6;;
23252;SDS011;11795;47.054;15.408;2024-02-14T00:20:00;6.4;;;3.6;;
23252;SDS011;11795;47.054;15.408;2024-02-14T00:22:00;5.1;;;3.4;;
23252;SDS011;11795;47.054;15.408;2024-02-14T00:24:01;5.1;;;3.4;;
23252;SDS011;11795;47.054;15.408;2024-02-14T00:26:00;5.1;;;3.4;;
23252;SDS011;11795;47.054;15.408;2024-02-14T00:28:00;4.2;;;3.1;;
23252;SDS011;11795;47.054;15.408;2024-02-14T00:30:01;4.2;;;3.1;;
23252;SDS011;11795;47.054;15.408;2024-02-14T00:32:00;5.3;;;3.6;;
23252;SDS011;11795;47.054;15.408;2024-02-14T00:34:00;5.3;;;3.6;;
23252;SDS011;11795;47.054;15.408;2024-02-14T00:36:00;5.3;;;3.6;;
23252;SDS011;11795;47.054;15.408;2024-02-14T00:38:00;6.2;;;4.3;;
23252;SDS011;11795;47.054;15.408;2024-02-14T00:40:00;6.2;;;4.3;;
23252;SDS011;11795;47.054;15.408;2024-02-14T00:42:01;5.2;;;3.5;;
23252;SDS011;11795;47.054;15.408;2024-02-14T00:44:00;5.2;;;3.5;;
23252;SDS011;11795;47.054;15.408;2024-02-14T00:46:00;5.2;;;3.5;;
23252;SDS011;11795;47.054;15.408;2024-02-14T00:48:01;6.1;;;3.5;;
23252;SDS011;11795;47.054;15.408;2024-02-14T00:50:00;6.1;;;3.5;;
23252;SDS011;11795;47.054;15.408;2024-02-14T00:52:00;4.2;;;3.0;;
23252;SDS011;11795;47.054;15.408;2024-02-14T00:54:00;4.2;;;3.0;;
23252;SDS011;11795;47.054;15.408;2024-02-14T00:56:00;4.2;;;3.0;;
23252;SDS011;11795;47.054;15.408;2024-02-14T00:58:00;6.4;;;3.7;;
23252;SDS011;11795;47.054;15.408;2024-02-14T01:00:00;6.4;;;3.7;;
23252;SDS011;11795;47.054;15.408;2024-02-14T01:02:00;6.3;;;3.1;;
23252;SDS011;11795;47.054;15.408;2024-02-14T01:04:00;6.3;;;3.1;;
23252;SDS011;11795;47.054;15.408;2024-02-14T01:06:00;6.3;;;3.1;;
23252;SDS011;11795;47.054;15.408;2024-02-14T01:08:00;4.5;;;3.2;;
23252;SDS011;11795;47.054;15.408;2024-02-14T01:10:00;4.5;;;3.2;;
23252;SDS011;11795;47.054;15.408;2024-02-14T01:12:00;4.2;;;2.8;;
23252;SDS011;11795;47.054;15.408;2024-02-14T01:14:01;4.2;;;2.8;;
23252;SDS011;11795;47.054;15.408;2024-02-14T01:16:00;4.2;;;2.8;;
23252;SDS011;11795;47.054;15.408;2024-02-14T01:18:00;3.9;;;2.7;;
23252;SDS011;11795;47.054;15.408;2024-02-14T01:20:00;3.9;;;2.7;;
23252;SDS011;11795;47.054;15.408;2024-02-14T01:22:00;5.0;;;3.4;;
23252;SDS011;11795;47.054;15.408;2024-02-14T01:24:00;5.0;;;3.4;;
23252;SDS011;11795;47.054;15.408;2024-02-14T01:26:02;5.0;;;3.4;;
23252;SDS011;11795;47.054;15.408;2024-02-14T01:28:00;5.8;;;3.0;;
23252;SDS011;11795;47.054;15.408;2024-02-14T01:30:00;5.8;;;3.0;;
23252;SDS011;11795;47.054;15.408;2024-02-14T01:32:00;4.9;;;3.2;;
23252;SDS011;11795;47.054;15.408;2024-02-14T01:34:01;4.9;;;3.2;;
23252;SDS011;11795;47.054;15.408;2024-02-14T01:36:00;4.9;;;3.2;;
23252;SDS011;11795;47.054;15.408;2024-02-14T01:38:02;4.1;;;3.1;;
23252;SDS011;11795;47.054;15.408;2024-02-14T01:40:00;4.1;;;3.1;;
23252;SDS011;11795;47.054;15.408;2024-02-14T01:42:00;4.5;;;3.4;;
23252;SDS011;11795;47.054;15.408;2024-02-14T01:44:01;4.5;;;3.4;;
23252;SDS011;11795;47.054;15.408;2024-02-14T01:46:03;4.5;;;3.4;;
23252;SDS011;11795;47.054;15.408;2024-02-14T01:48:00;5.7;;;3.6;;
23252;SDS011;11795;47.054;15.408;2024-02-14T01:50:00;5.7;;;3.6;;
23252;SDS011;11795;47.054;15.408;2024-02-14T01:52:01;4.6;;;3.0;;
23252;SDS011;11795;47.054;15.408;2024-02-14T01:54:00;4.6;;;3.0;;
23252;SDS011;11795;47.054;15.408;2024-02-14T01:56:00;4.6;;;3.0;;
23252;SDS011;11795;47.054;15.408;2024-02-14T01:58:00;5.5;;;3.5;;
23252;SDS011;11795;47.054;15.408;2024-02-14T02:00:02;5.5;;;3.5;;
23252;SDS011;11795;47.054;15.408;2024-02-14T02:02:00;4.8;;;3.0;;
23252;SDS011;11795;47.054;15.408;2024-02-14T02:04:00;4.8;;;3.0;;
23252;SDS011;11795;47.054;15.408;2024-02-14T02:06:00;4.8;;;3.0;;
23252;SDS011;11795;47.054;15.408;2024-02-14T02:08:01;4.7;;;3.2;;
23252;SDS011;11795;47.054;15.408;2024-02-14T02:10:00;4.7;;;3.2;;
23252;SDS011;11795;47.054;15.408;2024-02-14T02:12:00;4.7;;;3.7;;
23252;SDS011;11795;47.054;15.408;2024-02-14T02:14:00;4.7;;;3.7;;
23252;SDS011;11795;47.054;15.408;2024-02-14T02:16:05;4.7;;;3.7;;
23252;SDS011;11795;47.054;15.408;2024-02-14T02:18:00;5.1;;;3.2;;
23252;SDS011;11795;47.054;15.408;2024-02-14T02:20:00;5.1;;;3.2;;
23252;SDS011;11795;47.054;15.408;2024-02-14T02:22:00;5.5;;;3.0;;
23252;SDS011;11795;47.054;15.408;2024-02-14T02:24:00;5.5;;;3.0;;
23252;SDS011;11795;47.054;15.408;2024-02-14T02:26:00;5.5;;;3.0;;
23252;SDS011;11795;47.054;15.408;2024-02-14T02:28:00;4.0;;;2.9;;
23252;SDS011;11795;47.054;15.408;2024-02-14T02:30:01;4.0;;;2.9;;
23252;SDS011;11795;47.054;15.408;2024-02-14T02:32:00;5.1;;;3.0;;
23252;SDS011;11795;47.054;15.408;2024-02-14T02:34:00;5.1;;;3.0;;
23252;SDS011;11795;47.054;15.408;2024-02-14T02:36:00;5.1;;;3.0;;
23252;SDS011;11795;47.054;15.408;2024-02-14T02:38:00;4.4;;;2.9;;
23252;SDS011;11795;47.054;15.408;2024-02-14T02:40:00;4.4;;;2.9;;
23252;SDS011;11795;47.054;15.408;2024-02-14T02:42:00;5.3;;;3.7;;
23252;SDS011;11795;47.054;15.408;2024-02-14T02:44:01;5.3;;;3.7;;
23252;SDS011;11795;47.054;15.408;2024-02-14T02:46:00;5.3;;;3.7;;
23252;SDS011;11795;47.054;15.408;2024-02-14T02:48:02;3.9;;;3.1;;
23252;SDS011;11795;47.054;15.408;2024-02-14T02:50:03;3.9;;;3.1;;
23252;SDS011;11795;47.054;15.408;2024-02-14T02:52:00;4.3;;;3.0;;
23252;SDS011;11795;47.054;15.408;2024-02-14T02:54:00;4.3;;;3.0;;
23252;SDS011;11795;47.054;15.408;2024-02-14T02:56:00;4.3;;;3.0;;
23252;SDS011;11795;47.054;15.408;2024-02-14T02:58:00;5.7;;;3.4;;
23252;SDS011;11795;47.054;15.408;2024-02-14T03:00:00;5.7;;;3.4;;
23252;SDS011;11795;47.054;15.408;2024-02-14T03:02:00;4.3;;;3.2;;
23252;SDS011;11795;47.054;15.408;2024-02-14T03:04:01;4.3;;;3.2;;
23252;SDS011;11795;47.054;15.408;2024-02-14T03:06:03;4.3;;;3.2;;
23252;SDS011;11795;47.054;15.408;2024-02-14T03:08:00;4.0;;;2.9;;
23252;SDS011;11795;47.054;15.408;2024-02-14T03:10:00;4.0;;;2.9;;
23252;SDS011;11795;47.054;15.408;2024-02-14T03:12:01;4.8;;;2.9;;
23252;SDS011;11795;47.054;15.408;2024-02-14T03:14:00;4.8;;;2.9;;
23252;SDS011;11795;47.054;15.408;2024-02-14T03:16:00;4.8;;;2.9;;
23252;SDS011;11795;47.054;15.408;2024-02-14T03:18:00;4.0;;;2.9;;
23252;SDS011;11795;47.054;15.408;2024-02-14T03:20:00;4.0;;;2.9;;
23252;SDS011;11795;47.054;15.408;2024-02-14T03:22:00;3.9;;;2.6;;
23252;SDS011;11795;47.054;15.408;2024-02-14T03:24:00;3.9;;;2.6;;
23252;SDS011;11795;47.054;15.408;2024-02-14T03:26:00;3.9;;;2.6;;
23252;SDS011;11795;47.054;15.408;2024-02-14T03:28:00;5.1;;;3.0;;
23252;SDS011;11795;47.054;15.408;2024-02-14T03:30:03;5.1;;;3.0;;
23252;SDS011;11795;47.054;15.408;2024-02-14T03:32:04;3.9;;;2.6;;
23252;SDS011;11795;47.054;15.408;2024-02-14T03:34:00;3.9;;;2.6;;
23252;SDS011;11795;47.054;15.408;2024-02-14T03:36:00;3.9;;;2.6;;
23252;SDS011;11795;47.054;15.408;2024-02-14T03:38:01;3.8;;;2.6;;
23252;SDS011;11795;47.054;15.408;2024-02-14T03:40:00;3.8;;;2.6;;
23252;SDS011;11795;47.054;15.408;2024-02-14T03:42:03;3.4;;;2.3;;
23252;SDS011;11795;47.054;15.408;2024-02-14T03:44:02;3.4;;;2.3;;
23252;SDS011;11795;47.054;15.408;2024-02-14T03:46:00;3.4;;;2.3;;
23252;SDS011;11795;47.054;15.408;2024-02-14T03:48:00;3.1;;;2.4;;
23252;SDS011;11795;47.054;15.408;2024-02-14T03:50:02;3.1;;;2.4;;
23252;SDS011;11795;47.054;15.408;2024-02-14T03:52:01;3.4;;;2.2;;
23252;SDS011;11795;47.054;15.408;2024-02-14T03:54:00;3.4;;;2.2;;
23252;SDS011;11795;47.054;15.408;2024-02-14T03:56:00;3.4;;;2.2;;
23252;SDS011;11795;47.054;15.408;2024-02-14T03:58:01;3.8;;;2.9;;
23252;SDS011;11795;47.054;15.408;2024-02-14T04:00:01;3.8;;;2.9;;
23252;SDS011;11795;47.054;15.408;2024-02-14T04:02:00;3.2;;;2.7;;
23252;SDS011;11795;47.054;15.408;2024-02-14T04:04:00;3.2;;;2.7;;
23252;SDS011;11795;47.054;15.408;2024-02-14T04:06:00;3.2;;;2.7;;
23252;SDS011;11795;47.054;15.408;2024-02-14T04:08:00;5.0;;;3.4;;
23252;SDS011;11795;47.054;15.408;2024-02-14T04:10:00;5.0;;;3.4;;
23252;SDS011;11795;47.054;15.408;2024-02-14T04:12:00;4.2;;;3.4;;
23252;SDS011;11795;47.054;15.408;2024-02-14T04:14:00;4.2;;;3.4;;
23252;SDS011;11795;47.054;15.408;2024-02-14T04:16:00;4.2;;;3.4;;
23252;SDS011;11795;47.054;15.408;2024-02-14T04:18:02;5.1;;;3.8;;
23252;SDS011;11795;47.054;15.408;2024-02-14T04:20:00;5.1;;;3.8;;
23252;SDS011;11795;47.054;15.408;2024-02-14T04:22:00;5.6;;;3.6;;
23252;SDS011;11795;47.054;15.408;2024-02-14T04:24:00;5.6;;;3.6;;
23252;SDS011;11795;47.054;15.408;2024-02-14T04:26:00;5.6;;;3.6;;
23252;SDS011;11795;47.054;15.408;2024-02-14T04:28:00;4.5;;;3.4;;
23252;SDS011;11795;47.054;15.408;2024-02-14T04:30:01;4.5;;;3.4;;
23252;SDS011;11795;47.054;15.408;2024-02-14T04:32:00;6.6;;;3.6;;
23252;SDS011;11795;47.054;15.408;2024-02-14T04:34:01;6.6;;;3.6;;
23252;SDS011;11795;47.054;15.408;2024-02-14T04:36:00;6.6;;;3.6;;
23252;SDS011;11795;47.054;15.408;2024-02-14T04:38:01;4.6;;;2.7;;
23252;SDS011;11795;47.054;15.408;2024-02-14T04:40:01;4.6;;;2.7;;
23252;SDS011;11795;47.054;15.408;2024-02-14T04:42:01;4.8;;;2.5;;
23252;SDS011;11795;47.054;15.408;2024-02-14T04:44:00;4.8;;;2.5;;
23252;SDS011;11795;47.054;15.408;2024-02-14T04:46:00;4.8;;;2.5;;
23252;SDS011;11795;47.054;15.408;2024-02-14T04:48:00;3.1;;;2.1;;
23252;SDS011;11795;47.054;15.408;2024-02-14T04:50:04;3.1;;;2.1;;
23252;SDS011;11795;47.054;15.408;2024-02-14T04:52:00;4.8;;;2.4;;
23252;SDS011;11795;47.054;15.408;2024-02-14T04:54:00;4.8;;;2.4;;
23252;SDS011;11795;47.054;15.408;2024-02-14T04:56:00;4.8;;;2.4;;
23252;SDS011;11795;47.054;15.408;2024-02-14T04:58:00;3.5;;;2.0;;
23252;SDS011;11795;47.054;15.408;2024-02-14T05:00:00;3.5;;;2.0;;
23252;SDS011;11795;47.054;15.408;2024-02-14T05:02:00;4.6;;;2.1;;
23252;SDS011;11795;47.054;15.408;2024-02-14T05:04:00;4.6;;;2.1;;
23252;SDS011;11795;47.054;15.408;2024-02-14T05:06:02;4.6;;;2.1;;
23252;SDS011;11795;47.054;15.408;2024-02-14T05:08:00;4.7;;;2.7;;
23252;SDS011;11795;47.054;15.408;2024-02-14T05:10:01;4.7;;;2.7;;
23252;SDS011;11795;47.054;15.408;2024-02-14T05:12:00;3.8;;;2.7;;
23252;SDS011;11795;47.054;15.408;2024-02-14T05:14:02;3.8;;;2.7;;
23252;SDS011;11795;47.054;15.408;2024-02-14T05:16:02;3.8;;;2.7;;
23252;SDS011;11795;47.054;15.408;2024-02-14T05:18:00;4.2;;;3.0;;
23252;SDS011;11795;47.054;15.408;2024-02-14T05:20:00;4.2;;;3.0;;
23252;SDS011;11795;47.054;15.408;2024-02-14T05:22:00;4.0;;;3.3;;
23252;SDS011;11795;47.054;15.408;2024-02-14T05:24:01;4.0;;;3.3;;
23252;SDS011;11795;47.054;15.408;2024-02-14T05:28:00;6.7;;;4.7;;
23252;SDS011;11795;47.054;15.408;2024-02-14T05:30:00;6.7;;;4.7;;
23252;SDS011;11795;47.054;15.408;2024-02-14T05:32:00;8.7;;;6.8;;
23252;SDS011;11795;47.054;15.408;2024-02-14T05:34:00;8.7;;;6.8;;
23252;SDS011;11795;47.054;15.408;2024-02-14T05:36:00;8.7;;;6.8;;
23252;SDS011;11795;47.054;15.408;2024-02-14T05:38:00;7.3;;;5.6;;
23252;SDS011;11795;47.054;15.408;2024-02-14T05:40:00;7.3;;;5.6;;
23252;SDS011;11795;47.054;15.408;2024-02-14T05:42:00;5.3;;;4.6;;
23252;SDS011;11795;47.054;15.408;2024-02-14T05:44:00;5.3;;;4.6;;
23252;SDS011;11795;47.054;15.408;2024-02-14T05:46:00;5.3;;;4.6;;
23252;SDS011;11795;47.054;15.408;2024-02-14T05:48:00;5.5;;;4.1;;
23252;SDS011;11795;47.054;15.408;2024-02-14T05:50:00;5.5;;;4.1;;
23252;SDS011;11795;47.054;15.408;2024-02-14T05:52:00;5.3;;;4.1;;
23252;SDS011;11795;47.054;15.408;2024-02-14T05:54:00;5.3;;;4.1;;
23252;SDS011;11795;47.054;15.408;2024-02-14T05:56:00;5.3;;;4.1;;
23252;SDS011;11795;47.054;15.408;2024-02-14T05:58:00;5.4;;;4.2;;
23252;SDS011;11795;47.054;15.408;2024-02-14T06:00:00;5.4;;;4.2;;
23252;SDS011;11795;47.054;15.408;2024-02-14T06:02:03;7.6;;;5.7;;
23252;SDS011;11795;47.054;15.408;2024-02-14T06:04:00;7.6;;;5.7;;
23252;SDS011;11795;47.054;15.408;2024-02-14T06:06:00;7.6;;;5.7;;
23252;SDS011;11795;47.054;15.408;2024-02-14T06:08:03;7.2;;;4.8;;
23252;SDS011;11795;47.054;15.408;2024-02-14T06:10:00;7.2;;;4.8;;
23252;SDS011;11795;47.054;15.408;2024-02-14T06:12:00;6.7;;;3.7;;
23252;SDS011;11795;47.054;15.408;2024-02-14T06:14:00;6.7;;;3.7;;
23252;SDS011;11795;47.054;15.408;2024-02-14T06:16:00;6.7;;;3.7;;
23252;SDS011;11795;47.054;15.408;2024-02-14T06:18:00;5.5;;;3.5;;
23252;SDS011;11795;47.054;15.408;2024-02-14T06:20:06;5.5;;;3.5;;
23252;SDS011;11795;47.054;15.408;2024-02-14T06:22:00;4.6;;;3.6;;
23252;SDS011;11795;47.054;15.408;2024-02-14T06:24:00;4.6;;;3.6;;
23252;SDS011;11795;47.054;15.408;2024-02-14T06:26:00;4.6;;;3.6;;
23252;SDS011;11795;47.054;15.408;2024-02-14T06:28:00;4.4;;;2.8;;
23252;SDS011;11795;47.054;15.408;2024-02-14T06:30:00;4.4;;;2.8;;
23252;SDS011;11795;47.054;15.408;2024-02-14T06:32:00;6.6;;;3.7;;
23252;SDS011;11795;47.054;15.408;2024-02-14T06:34:00;6.6;;;3.7;;
23252;SDS011;11795;47.054;15.408;2024-02-14T06:36:00;6.6;;;3.7;;
23252;SDS011;11795;47.054;15.408;2024-02-14T06:38:00;9.0;;;5.2;;
23252;SDS011;11795;47.054;15.408;2024-02-14T06:40:00;9.0;;;5.2;;
23252;SDS011;11795;47.054;15.408;2024-02-14T06:42:00;17.6;;;7.1;;
23252;SDS011;11795;47.054;15.408;2024-02-14T06:44:00;17.6;;;7.1;;
23252;SDS011;11795;47.054;15.408;2024-02-14T06:46:00;17.6;;;7.1;;
23252;SDS011;11795;47.054;15.408;2024-02-14T06:48:00;7.6;;;3.9;;
23252;SDS011;11795;47.054;15.408;2024-02-14T06:50:00;7.6;;;3.9;;
23252;SDS011;11795;47.054;15.408;2024-02-14T06:52:01;6.1;;;3.8;;
23252;SDS011;11795;47.054;15.408;2024-02-14T06:54:00;6.1;;;3.8;;
23252;SDS011;11795;47.054;15.408;2024-02-14T06:56:00;6.1;;;3.8;;
23252;SDS011;11795;47.054;15.408;2024-02-14T06:58:00;7.6;;;3.7;;
23252;SDS011;11795;47.054;15.408;2024-02-14T07:00:00;7.6;;;3.7;;
23252;SDS011;11795;47.054;15.408;2024-02-14T07:02:01;10.6;;;5.6;;
23252;SDS011;11795;47.054;15.408;2024-02-14T07:04:01;10.6;;;5.6;;
23252;SDS011;11795;47.054;15.408;2024-02-14T07:06:00;10.6;;;5.6;;
23252;SDS011;11795;47.054;15.408;2024-02-14T07:08:00;10.9;;;6.4;;
23252;SDS011;11795;47.054;15.408;2024-02-14T07:10:00;10.9;;;6.4;;
23252;SDS011;11795;47.054;15.408;2024-02-14T07:12:00;9.1;;;5.6;;
23252;SDS011;11795;47.054;15.408;2024-02-14T07:14:00;9.1;;;5.6;;
23252;SDS011;11795;47.054;15.408;2024-02-14T07:16:00;9.1;;;5.6;;
23252;SDS011;11795;47.054;15.408;2024-02-14T07:18:00;11.5;;;6.2;;
23252;SDS011;11795;47.054;15.408;2024-02-14T07:20:00;11.5;;;6.2;;
23252;SDS011;11795;47.054;15.408;2024-02-14T07:22:00;9.6;;;5.0;;
23252;SDS011;11795;47.054;15.408;2024-02-14T07:24:00;9.6;;;5.0;;
23252;SDS011;11795;47.054;15.408;2024-02-14T07:26:01;9.6;;;5.0;;
23252;SDS011;11795;47.054;15.408;2024-02-14T07:28:00;8.3;;;4.6;;
23252;SDS011;11795;47.054;15.408;2024-02-14T07:30:00;8.3;;;4.6;;
23252;SDS011;11795;47.054;15.408;2024-02-14T07:32:01;8.1;;;4.7;;
23252;SDS011;11795;47.054;15.408;2024-02-14T07:34:00;8.1;;;4.7;;
23252;SDS011;11795;47.054;15.408;2024-02-14T07:36:00;8.1;;;4.7;;
23252;SDS011;11795;47.054;15.408;2024-02-14T07:38:00;7.1;;;4.3;;
23252;SDS011;11795;47.054;15.408;2024-02-14T07:40:00;7.1;;;4.3;;
23252;SDS011;11795;47.054;15.408;2024-02-14T07:42:00;10.0;;;5.9;;
23252;SDS011;11795;47.054;15.408;2024-02-14T07:44:00;10.0;;;5.9;;
23252;SDS011;11795;47.054;15.408;2024-02-14T07:46:00;10.0;;;5.9;;
23252;SDS011;11795;47.054;15.408;2024-02-14T07:48:00;9.1;;;5.7;;
23252;SDS011;11795;47.054;15.408;2024-02-14T07:50:00;9.1;;;5.7;;
23252;SDS011;11795;47.054;15.408;2024-02-14T07:52:00;10.8;;;5.6;;
23252;SDS011;11795;47.054;15.408;2024-02-14T07:54:00;10.8;;;5.6;;
23252;SDS011;11795;47.054;15.408;2024-02-14T07:56:00;10.8;;;5.6;;
23252;SDS011;11795;47.054;15.408;2024-02-14T07:58:00;11.1;;;5.8;;
23252;SDS011;11795;47.054;15.408;2024-02-14T08:00:00;11.1;;;5.8;;
23252;SDS011;11795;47.054;15.408;2024-02-14T08:02:00;9.7;;;5.9;;
23252;SDS011;11795;47.054;15.408;2024-02-14T08:04:00;9.7;;;5.9;;
23252;SDS011;11795;47.054;15.408;2024-02-14T08:06:00;9.7;;;5.9;;
23252;SDS011;11795;47.054;15.408;2024-02-14T08:08:00;12.3;;;6.1;;
23252;SDS011;11795;47.054;15.408;2024-02-14T08:10:00;12.3;;;6.1;;
23252;SDS011;11795;47.054;15.408;2024-02-14T08:12:00;10.6;;;6.4;;
23252;SDS011;11795;47.054;15.408;2024-02-14T08:14:00;10.6;;;6.4;;
23252;SDS011;11795;47.054;15.408;2024-02-14T08:16:00;10.6;;;6.4;;
23252;SDS011;11795;47.054;15.408;2024-02-14T08:18:00;11.5;;;6.8;;
23252;SDS011;11795;47.054;15.408;2024-02-14T08:20:00;11.5;;;6.8;;
23252;SDS011;11795;47.054;15.408;2024-02-14T08:22:00;10.1;;;5.2;;
23252;SDS011;11795;47.054;15.408;2024-02-14T08:24:00;10.1;;;5.2;;
23252;SDS011;11795;47.054;15.408;2024-02-14T08:26:00;10.1;;;5.2;;
23252;SDS011;11795;47.054;15.408;2024-02-14T08:28:00;10.6;;;5.2;;
23252;SDS011;11795;47.054;15.408;2024-02-14T08:30:00;10.6;;;5.2;;
23252;SDS011;11795;47.054;15.408;2024-02-14T08:32:00;7.2;;;5.0;;
23252;SDS011;11795;47.054;15.408;2024-02-14T08:34:00;7.2;;;5.0;;
23252;SDS011;11795;47.054;15.408;2024-02-14T08:36:01;7.2;;;5.0;;
23252;SDS011;11795;47.054;15.408;2024-02-14T08:38:00;8.7;;;4.9;;
23252;SDS011;11795;47.054;15.408;2024-02-14T08:40:00;8.7;;;4.9;;
23252;SDS011;11795;47.054;15.408;2024-02-14T08:42:02;9.2;;;5.0;;
23252;SDS011;11795;47.054;15.408;2024-02-14T08:44:00;9.2;;;5.0;;
23252;SDS011;11795;47.054;15.408;2024-02-14T08:46:00;9.2;;;5.0;;
23252;SDS011;11795;47.054;15.408;2024-02-14T08:48:00;8.3;;;4.5;;
23252;SDS011;11795;47.054;15.408;2024-02-14T08:50:00;8.3;;;4.5;;
23252;SDS011;11795;47.054;15.408;2024-02-14T08:52:00;7.4;;;4.3;;
23252;SDS011;11795;47.054;15.408;2024-02-14T08:54:03;7.4;;;4.3;;
23252;SDS011;11795;47.054;15.408;2024-02-14T08:56:00;7.4;;;4.3;;
23252;SDS011;11795;47.054;15.408;2024-02-14T08:58:00;7.3;;;4.3;;
23252;SDS011;11795;47.054;15.408;2024-02-14T09:00:00;7.3;;;4.3;;
23252;SDS011;11795;47.054;15.408;2024-02-14T09:02:00;7.0;;;4.3;;
23252;SDS011;11795;47.054;15.408;2024-02-14T09:04:00;7.0;;;4.3;;
23252;SDS011;11795;47.054;15.408;2024-02-14T09:06:00;7.0;;;4.3;;
23252;SDS011;11795;47.054;15.408;2024-02-14T09:08:00;9.7;;;4.7;;
23252;SDS011;11795;47.054;15.408;2024-02-14T09:10:00;9.7;;;4.7;;
23252;SDS011;11795;47.054;15.408;2024-02-14T09:12:02;7.8;;;4.0;;
23252;SDS011;11795;47.054;15.408;2024-02-14T09:14:04;7.8;;;4.0;;
23252;SDS011;11795;47.054;15.408;2024-02-14T09:16:01;7.8;;;4.0;;
23252;SDS011;11795;47.054;15.408;2024-02-14T09:18:01;6.8;;;4.0;;
23252;SDS011;11795;47.054;15.408;2024-02-14T09:20:01;6.8;;;4.0;;
23252;SDS011;11795;47.054;15.408;2024-02-14T09:22:00;5.0;;;3.0;;
23252;SDS011;11795;47.054;15.408;2024-02-14T09:24:00;5.0;;;3.0;;
23252;SDS011;11795;47.054;15.408;2024-02-14T09:26:01;5.0;;;3.0;;
23252;SDS011;11795;47.054;15.408;2024-02-14T09:28:00;6.1;;;3.4;;
23252;SDS011;11795;47.054;15.408;2024-02-14T09:30:00;6.1;;;3.4;;
23252;SDS011;11795;47.054;15.408;2024-02-14T09:32:00;5.0;;;3.3;;
23252;SDS011;11795;47.054;15.408;2024-02-14T09:34:01;5.0;;;3.3;;
23252;SDS011;11795;47.054;15.408;2024-02-14T09:36:00;5.0;;;3.3;;
23252;SDS011;11795;47.054;15.408;2024-02-14T09:38:00;4.9;;;2.9;;
23252;SDS011;11795;47.054;15.408;2024-02-14T09:40:00;4.9;;;2.9;;
23252;SDS011;11795;47.054;15.408;2024-02-14T09:42:01;6.0;;;3.0;;
23252;SDS011;11795;47.054;15.408;2024-02-14T09:44:00;6.0;;;3.0;;
23252;SDS011;11795;47.054;15.408;2024-02-14T09:48:00;7.1;;;3.0;;
23252;SDS011;11795;47.054;15.408;2024-02-14T09:50:01;7.1;;;3.0;;
23252;SDS011;11795;47.054;15.408;2024-02-14T09:52:01;4.8;;;2.9;;
23252;SDS011;11795;47.054;15.408;2024-02-14T09:54:00;4.8;;;2.9;;
23252;SDS011;11795;47.054;15.408;2024-02-14T09:56:01;4.8;;;2.9;;
23252;SDS011;11795;47.054;15.408;2024-02-14T09:58:04;10.0;;;4.8;;
23252;SDS011;11795;47.054;15.408;2024-02-14T10:00:00;10.0;;;4.8;;
23252;SDS011;11795;47.054;15.408;2024-02-14T10:02:00;7.9;;;4.8;;
23252;SDS011;11795;47.054;15.408;2024-02-14T10:04:00;7.9;;;4.8;;
23252;SDS011;11795;47.054;15.408;2024-02-14T10:06:00;7.9;;;4.8;;
23252;SDS011;11795;47.054;15.408;2024-02-14T10:08:01;9.0;;;4.6;;
23252;SDS011;11795;47.054;15.408;2024-02-14T10:10:05;9.0;;;4.6;;
23252;SDS011;11795;47.054;15.408;2024-02-14T10:12:02;9.3;;;4.6;;
23252;SDS011;11795;47.054;15.408;2024-02-14T10:14:04;9.3;;;4.6;;
23252;SDS011;11795;47.054;15.408;2024-02-14T10:16:00;9.3;;;4.6;;
23252;SDS011;11795;47.054;15.408;2024-02-14T10:18:01;7.6;;;4.2;;
23252;SDS011;11795;47.054;15.408;2024-02-14T10:20:01;7.6;;;4.2;;
23252;SDS011;11795;47.054;15.408;2024-02-14T10:22:02;8.8;;;4.4;;
23252;SDS011;11795;47.054;15.408;2024-02-14T10:24:00;8.8;;;4.4;;
23252;SDS011;11795;47.054;15.408;2024-02-14T10:26:01;8.8;;;4.4;;
23252;SDS011;11795;47.054;15.408;2024-02-14T10:28:03;8.3;;;4.2;;
23252;SDS011;11795;47.054;15.408;2024-02-14T10:30:00;8.3;;;4.2;;
23252;SDS011;11795;47.054;15.408;2024-02-14T10:32:00;7.8;;;3.9;;
23252;SDS011;11795;47.054;15.408;2024-02-14T10:34:00;7.8;;;3.9;;
23252;SDS011;11795;47.054;15.408;2024-02-14T10:36:02;7.8;;;3.9;;
23252;SDS011;11795;47.054;15.408;2024-02-14T10:38:01;6.4;;;4.0;;
23252;SDS011;11795;47.054;15.408;2024-02-14T10:40:00;6.4;;;4.0;;
23252;SDS011;11795;47.054;15.408;2024-02-14T10:42:01;5.7;;;3.5;;
23252;SDS011;11795;47.054;15.408;2024-02-14T10:44:01;5.7;;;3.5;;
23252;SDS011;11795;47.054;15.408;2024-02-14T10:46:02;5.7;;;3.5;;
23252;SDS011;11795;47.054;15.408;2024-02-14T10:48:00;5.5;;;3.3;;
23252;SDS011;11795;47.054;15.408;2024-02-14T10:50:03;5.5;;;3.3;;
23252;SDS011;11795;47.054;15.408;2024-02-14T10:52:01;5.5;;;3.3;;
23252;SDS011;11795;47.054;15.408;2024-02-14T10:54:00;5.5;;;3.3;;
23252;SDS011;11795;47.054;15.408;2024-02-14T10:56:00;5.5;;;3.3;;
23252;SDS011;11795;47.054;15.408;2024-02-14T10:58:00;7.5;;;3.3;;
23252;SDS011;11795;47.054;15.408;2024-02-14T11:00:04;7.5;;;3.3;;
23252;SDS011;11795;47.054;15.408;2024-02-14T11:02:00;7.4;;;3.5;;
23252;SDS011;11795;47.054;15.408;2024-02-14T11:04:00;7.4;;;3.5;;
23252;SDS011;11795;47.054;15.408;2024-02-14T11:06:02;7.4;;;3.5;;
23252;SDS011;11795;47.054;15.408;2024-02-14T11:08:07;6.4;;;3.1;;
23252;SDS011;11795;47.054;15.408;2024-02-14T11:10:05;6.4;;;3.1;;
23252;SDS011;11795;47.054;15.408;2024-02-14T11:12:00;5.3;;;2.3;;
23252;SDS011;11795;47.054;15.408;2024-02-14T11:14:00;5.3;;;2.3;;
23252;SDS011;11795;47.054;15.408;2024-02-14T11:16:00;5.3;;;2.3;;
23252;SDS011;11795;47.054;15.408;2024-02-14T11:18:03;3.9;;;2.3;;
23252;SDS011;11795;47.054;15.408;2024-02-14T11:20:11;3.9;;;2.3;;
23252;SDS011;11795;47.054;15.408;2024-02-14T11:22:09;6.1;;;2.4;;
23252;SDS011;11795;47.054;15.408;2024-02-14T11:24:04;6.1;;;2.4;;
23252;SDS011;11795;47.054;15.408;2024-02-14T11:26:01;6.1;;;2.4;;
23252;SDS011;11795;47.054;15.408;2024-02-14T11:28:12;5.2;;;2.3;;
23252;SDS011;11795;47.054;15.408;2024-02-14T11:30:00;5.2;;;2.3;;
23252;SDS011;11795;47.054;15.408;2024-02-14T11:32:00;5.2;;;2.3;;
23252;SDS011;11795;47.054;15.408;2024-02-14T11:34:04;5.4;;;2.1;;
23252;SDS011;11795;47.054;15.408;2024-02-14T11:36:07;5.4;;;2.1;;
23252;SDS011;11795;47.054;15.408;2024-02-14T11:38:01;3.7;;;1.7;;
23252;SDS011;11795;47.054;15.408;2024-02-14T11:40:01;3.7;;;1.7;;
23252;SDS011;11795;47.054;15.408;2024-02-14T11:42:00;3.7;;;1.7;;
23252;SDS011;11795;47.054;15.408;2024-02-14T11:44:02;3.9;;;1.8;;
23252;SDS011;11795;47.054;15.408;2024-02-14T11:46:00;3.9;;;1.8;;
23252;SDS011;11795;47.054;15.408;2024-02-14T11:48:00;5.8;;;2.3;;
23252;SDS011;11795;47.054;15.408;2024-02-14T11:50:00;5.8;;;2.3;;
23252;SDS011;11795;47.054;15.408;2024-02-14T11:52:00;5.8;;;2.3;;
23252;SDS011;11795;47.054;15.408;2024-02-14T11:54:05;3.6;;;1.8;;
23252;SDS011;11795;47.054;15.408;2024-02-14T11:56:00;3.6;;;1.8;;
23252;SDS011;11795;47.054;15.408;2024-02-14T11:58:00;3.8;;;1.8;;
23252;SDS011;11795;47.054;15.408;2024-02-14T12:00:00;3.8;;;1.8;;
23252;SDS011;11795;47.054;15.408;2024-02-14T12:02:02;3.8;;;1.8;;
23252;SDS011;11795;47.054;15.408;2024-02-14T12:04:01;4.4;;;2.1;;
23252;SDS011;11795;47.054;15.408;2024-02-14T12:06:00;4.4;;;2.1;;
23252;SDS011;11795;47.054;15.408;2024-02-14T12:08:00;3.8;;;1.6;;
23252;SDS011;11795;47.054;15.408;2024-02-14T12:10:00;3.8;;;1.6;;
23252;SDS011;11795;47.054;15.408;2024-02-14T12:12:00;3.8;;;1.6;;
23252;SDS011;11795;47.054;15.408;2024-02-14T12:14:01;3.7;;;1.8;;
23252;SDS011;11795;47.054;15.408;2024-02-14T12:16:00;3.7;;;1.8;;